Terminal Aerodrome Forecast
Issued by NWS Pueblo, CO

Home | Current Version | Previous Version | Text Only | Print | Product List | Glossary On
Versions: 1 2 3 4 5 6 7 8 9 10 11 12 13 14 15 16
000
FTUS45 KPUB 242320
TAFALS
TAF
KALS 242320Z 2500/2524 25024G35KT P6SM BKN150
     FM250130 25014KT P6SM BKN250
     FM250230 VRB06KT P6SM BKN200
     FM250500 14008KT P6SM BKN150
     FM251600 22011KT P6SM BKN080
     FM252000 23015KT P6SM VCSH BKN080=

USA.gov is the U.S. government's official web portal to all federal, state and local government web resources and services.